Time;durP1;ratioP1;P1;durP2;ratioP2;P2;SDS_P1;SDS_P2;PMS_P1;PMS_P2;Temp;Humidity;BMP_temperature;BMP_pressure;BME280_temperature;BME280_humidity;BME280_pressure;Samples;Min_cycle;Max_cycle;Signal;HPM_P1;HPM_P2
2023/09/12 00:00:06;;;;;;;;;;;18.90;99.90;;;;;;4934949;28;19992;-83
2023/09/12 00:02:32;;;;;;;;;;;18.90;99.90;;;;;;4934407;29;20362;-82
2023/09/12 00:04:58;;;;;;;;;;;18.90;99.90;;;;;;4934010;29;19927;-82
2023/09/12 00:07:23;;;;;;;;;;;18.90;99.90;;;;;;4928164;29;19934;-83
2023/09/12 00:09:49;;;;;;;;;;;18.90;99.90;;;;;;4930311;29;19927;-83
2023/09/12 00:12:15;;;;;;;;;;;18.90;99.90;;;;;;4942904;29;19969;-83
2023/09/12 00:14:40;;;;;;;;;;;18.90;99.90;;;;;;4953902;29;19981;-83
2023/09/12 00:17:06;;;;;;;;;;;18.90;99.90;;;;;;4948442;29;19927;-83
2023/09/12 00:19:31;;;;;;;;;;;18.90;99.90;;;;;;4929389;29;19926;-83
2023/09/12 00:21:57;;;;;;;;;;;18.90;99.90;;;;;;4953533;29;19927;-83
2023/09/12 00:24:22;;;;;;;;;;;18.90;99.90;;;;;;4946583;28;19930;-83
2023/09/12 00:26:48;;;;;;;;;;;18.90;99.90;;;;;;4936684;29;19934;-83
2023/09/12 00:29:14;;;;;;;;;;;18.90;99.90;;;;;;4935475;29;19927;-83
2023/09/12 00:31:39;;;;;;;;;;;18.90;99.90;;;;;;4932989;29;20289;-83
2023/09/12 00:34:05;;;;;;;;;;;18.90;99.90;;;;;;4936645;29;19938;-83
2023/09/12 00:36:32;;;;;;;;;;;18.90;99.90;;;;;;4947342;28;20117;-83
2023/09/12 00:38:58;;;;;;;;;;;18.90;99.90;;;;;;4948290;29;19926;-83
2023/09/12 00:41:24;;;;;;;;;;;18.90;99.90;;;;;;4947921;29;20370;-84
2023/09/12 00:43:49;;;;;;;;;;;18.90;99.90;;;;;;4933804;28;19934;-84
2023/09/12 00:46:21;;;;;;;;;;;18.90;99.90;;;;;;4935163;29;19937;-83
2023/09/12 00:48:48;;;;;;;;;;;18.90;99.90;;;;;;4924980;28;20401;-83
2023/09/12 00:51:15;;;;;;;;;;;18.90;99.90;;;;;;4932627;29;19927;-83
2023/09/12 00:53:41;;;;;;;;;;;19.00;99.90;;;;;;4934865;29;19933;-83
2023/09/12 00:56:06;;;;;;;;;;;19.00;99.90;;;;;;4935006;29;19927;-83
2023/09/12 00:58:32;;;;;;;;;;;18.90;99.90;;;;;;4935146;29;19927;-83
2023/09/12 01:00:58;;;;;;;;;;;18.90;99.90;;;;;;4935175;29;20007;-83
2023/09/12 01:03:24;;;;;;;;;;;18.90;99.90;;;;;;4934215;29;19974;-83
2023/09/12 01:05:50;;;;;;;;;;;18.90;99.90;;;;;;4934725;28;19927;-83
2023/09/12 01:08:16;;;;;;;;;;;18.90;99.90;;;;;;4936061;29;19935;-83
2023/09/12 01:10:45;;;;;;;;;;;18.90;99.90;;;;;;4933241;29;19927;-83
2023/09/12 01:13:12;;;;;;;;;;;18.90;99.90;;;;;;4933558;29;19977;-83
2023/09/12 01:15:37;;;;;;;;;;;18.90;99.90;;;;;;4933912;28;20059;-83
2023/09/12 01:18:03;;;;;;;;;;;18.80;99.90;;;;;;4934803;28;19927;-82
2023/09/12 01:20:32;;;;;;;;;;;18.80;99.90;;;;;;4933617;29;19926;-83
2023/09/12 01:23:17;;;;;;;;;;;18.80;99.90;;;;;;4934158;29;19926;-83
2023/09/12 01:25:42;;;;;;;;;;;18.70;99.90;;;;;;4914661;29;19935;-83
2023/09/12 01:28:09;;;;;;;;;;;18.70;99.90;;;;;;4926323;29;19926;-84
2023/09/12 01:30:35;;;;;;;;;;;18.60;99.90;;;;;;4934366;29;20413;-84
2023/09/12 01:33:01;;;;;;;;;;;18.60;99.90;;;;;;4934289;29;19926;-83
2023/09/12 01:35:27;;;;;;;;;;;18.50;99.90;;;;;;4917346;29;19981;-84
2023/09/12 01:37:52;;;;;;;;;;;18.50;99.90;;;;;;4932916;29;19931;-84
2023/09/12 01:40:21;;;;;;;;;;;18.50;99.90;;;;;;4933443;29;19940;-83
2023/09/12 01:42:48;;;;;;;;;;;18.40;99.90;;;;;;4934140;29;19934;-84
2023/09/12 01:45:16;;;;;;;;;;;18.40;99.90;;;;;;4934280;29;19949;-83
2023/09/12 01:47:42;;;;;;;;;;;18.40;99.90;;;;;;4934348;29;19970;-83
2023/09/12 01:50:08;;;;;;;;;;;18.40;99.90;;;;;;4934313;28;19942;-83
2023/09/12 01:52:35;;;;;;;;;;;18.30;99.90;;;;;;4947176;29;20017;-85
2023/09/12 01:55:02;;;;;;;;;;;18.30;99.90;;;;;;4952243;29;19988;-83
2023/09/12 01:57:27;;;;;;;;;;;18.30;99.90;;;;;;4937557;29;20334;-83
2023/09/12 01:59:53;;;;;;;;;;;18.30;99.90;;;;;;4915209;28;19981;-84
2023/09/12 02:02:19;;;;;;;;;;;18.30;99.90;;;;;;4923279;28;19927;-83
2023/09/12 02:04:59;;;;;;;;;;;18.30;99.90;;;;;;4934212;29;19931;-83
2023/09/12 02:07:29;;;;;;;;;;;18.30;99.90;;;;;;4933919;29;19984;-84
2023/09/12 02:09:55;;;;;;;;;;;18.30;99.90;;;;;;4936193;29;20394;-83
2023/09/12 02:12:20;;;;;;;;;;;18.30;99.90;;;;;;4952288;28;19926;-84
2023/09/12 02:14:46;;;;;;;;;;;18.20;99.90;;;;;;4932744;29;19988;-83
2023/09/12 02:17:11;;;;;;;;;;;18.20;99.90;;;;;;4921341;29;19931;-83
2023/09/12 02:19:37;;;;;;;;;;;18.20;99.90;;;;;;4932895;29;19927;-84
2023/09/12 02:22:02;;;;;;;;;;;18.20;99.90;;;;;;4945406;29;19931;-83
2023/09/12 02:24:28;;;;;;;;;;;18.20;99.90;;;;;;4937337;29;19926;-83
2023/09/12 02:26:53;;;;;;;;;;;18.30;99.90;;;;;;4936033;29;20017;-83
2023/09/12 02:29:19;;;;;;;;;;;18.30;99.90;;;;;;4940365;28;19942;-83
2023/09/12 02:31:45;;;;;;;;;;;18.30;99.90;;;;;;4920405;29;19930;-82
2023/09/12 02:34:10;;;;;;;;;;;18.30;99.90;;;;;;4918395;29;20393;-83
2023/09/12 02:36:36;;;;;;;;;;;18.30;99.90;;;;;;4931124;29;19927;-83
2023/09/12 02:39:02;;;;;;;;;;;18.40;99.90;;;;;;4936797;28;19933;-83
2023/09/12 02:41:28;;;;;;;;;;;18.40;99.90;;;;;;4937139;29;19973;-83
2023/09/12 02:43:53;;;;;;;;;;;18.40;99.90;;;;;;4936020;29;19978;-84
2023/09/12 02:46:19;;;;;;;;;;;18.40;99.90;;;;;;4936846;29;19927;-83
2023/09/12 02:48:44;;;;;;;;;;;18.40;99.90;;;;;;4936132;29;19934;-83
2023/09/12 02:51:11;;;;;;;;;;;18.40;99.90;;;;;;4937119;28;20018;-83
2023/09/12 02:53:37;;;;;;;;;;;18.50;99.90;;;;;;4937044;28;19977;-83
2023/09/12 02:56:02;;;;;;;;;;;18.40;99.90;;;;;;4932585;28;19984;-83
2023/09/12 02:58:28;;;;;;;;;;;18.40;99.90;;;;;;4916958;29;19934;-83
2023/09/12 03:00:54;;;;;;;;;;;18.50;99.90;;;;;;4946115;29;19931;-82
2023/09/12 03:03:20;;;;;;;;;;;18.50;99.90;;;;;;4947163;29;19926;-83
2023/09/12 03:05:45;;;;;;;;;;;18.40;99.90;;;;;;4935501;29;20358;-83
2023/09/12 03:08:11;;;;;;;;;;;18.40;99.90;;;;;;4936704;29;19934;-84
2023/09/12 03:10:37;;;;;;;;;;;18.50;99.90;;;;;;4936515;29;20289;-83
2023/09/12 03:13:02;;;;;;;;;;;18.50;99.90;;;;;;4923027;29;19931;-83
2023/09/12 03:15:28;;;;;;;;;;;18.50;99.90;;;;;;4947010;28;19931;-83
2023/09/12 03:17:53;;;;;;;;;;;18.40;99.90;;;;;;4934954;29;19934;-83
2023/09/12 03:20:19;;;;;;;;;;;18.50;99.90;;;;;;4935472;29;19927;-83
2023/09/12 03:22:45;;;;;;;;;;;18.50;99.90;;;;;;4931447;29;20460;-83
2023/09/12 03:25:11;;;;;;;;;;;18.50;99.90;;;;;;4917593;29;20022;-83
2023/09/12 03:27:36;;;;;;;;;;;18.50;99.90;;;;;;4921454;29;20085;-83
2023/09/12 03:30:03;;;;;;;;;;;18.50;99.90;;;;;;4919613;29;20020;-83
2023/09/12 03:32:29;;;;;;;;;;;18.50;99.90;;;;;;4935942;28;20532;-83
2023/09/12 03:34:54;;;;;;;;;;;18.50;99.90;;;;;;4935698;29;20010;-83
2023/09/12 03:37:21;;;;;;;;;;;18.50;99.90;;;;;;4936361;29;19973;-83
2023/09/12 03:39:47;;;;;;;;;;;18.50;99.90;;;;;;4933877;29;19927;-83
2023/09/12 03:42:12;;;;;;;;;;;18.50;99.90;;;;;;4934375;29;20425;-83
2023/09/12 03:44:38;;;;;;;;;;;18.50;99.90;;;;;;4935571;29;19981;-83
2023/09/12 03:47:04;;;;;;;;;;;18.50;99.90;;;;;;4935558;29;19934;-83
2023/09/12 03:49:29;;;;;;;;;;;18.40;99.90;;;;;;4934749;28;19927;-83
2023/09/12 03:51:55;;;;;;;;;;;18.40;99.90;;;;;;4935849;29;19931;-83
2023/09/12 03:54:20;;;;;;;;;;;18.40;99.90;;;;;;4940962;29;19926;-83
2023/09/12 03:56:46;;;;;;;;;;;18.40;99.90;;;;;;4955161;28;20021;-83
2023/09/12 03:59:11;;;;;;;;;;;18.40;99.90;;;;;;4937183;28;19950;-82
2023/09/12 04:01:37;;;;;;;;;;;18.40;99.90;;;;;;4935708;29;19927;-83
2023/09/12 04:04:03;;;;;;;;;;;18.30;99.90;;;;;;4935998;29;19927;-83
2023/09/12 04:06:29;;;;;;;;;;;18.30;99.90;;;;;;4950839;29;19934;-83
2023/09/12 04:08:54;;;;;;;;;;;18.20;99.90;;;;;;4935799;28;19933;-83
2023/09/12 04:11:20;;;;;;;;;;;18.20;99.90;;;;;;4935750;29;19926;-82
2023/09/12 04:13:45;;;;;;;;;;;18.20;99.90;;;;;;4935827;29;20266;-83
2023/09/12 04:16:11;;;;;;;;;;;18.20;99.90;;;;;;4935217;29;19927;-83
2023/09/12 04:18:37;;;;;;;;;;;18.20;99.90;;;;;;4934567;28;19942;-84
2023/09/12 04:21:02;;;;;;;;;;;18.20;99.90;;;;;;4936894;29;19931;-83
2023/09/12 04:23:28;;;;;;;;;;;18.20;99.90;;;;;;4934354;29;20013;-83
2023/09/12 04:25:53;;;;;;;;;;;18.20;99.90;;;;;;4935372;28;19926;-83
2023/09/12 04:28:19;;;;;;;;;;;18.10;99.90;;;;;;4935817;28;19981;-83
2023/09/12 04:30:45;;;;;;;;;;;18.10;99.90;;;;;;4935581;29;20445;-83
2023/09/12 04:33:10;;;;;;;;;;;18.10;99.90;;;;;;4934569;28;19933;-83
2023/09/12 04:35:36;;;;;;;;;;;18.20;99.90;;;;;;4934190;29;19950;-83
2023/09/12 04:38:02;;;;;;;;;;;18.10;99.90;;;;;;4935227;29;19933;-83
2023/09/12 04:40:28;;;;;;;;;;;18.10;99.90;;;;;;4934439;29;19989;-83
2023/09/12 04:42:54;;;;;;;;;;;18.10;99.90;;;;;;4935313;29;20412;-82
2023/09/12 04:45:19;;;;;;;;;;;18.10;99.90;;;;;;4918575;29;19927;-83
2023/09/12 04:47:45;;;;;;;;;;;18.10;99.90;;;;;;4934355;29;19937;-82
2023/09/12 04:50:11;;;;;;;;;;;18.10;99.90;;;;;;4934869;28;19985;-84
2023/09/12 04:52:37;;;;;;;;;;;18.10;99.90;;;;;;4933917;29;20389;-82
2023/09/12 04:55:03;;;;;;;;;;;18.10;99.90;;;;;;4933801;29;20025;-82
2023/09/12 04:57:30;;;;;;;;;;;18.20;99.90;;;;;;4934509;29;20074;-82
2023/09/12 04:59:57;;;;;;;;;;;18.10;99.90;;;;;;4932485;29;20339;-82
2023/09/12 05:02:22;;;;;;;;;;;18.10;99.90;;;;;;4933750;28;20436;-82
2023/09/12 05:04:48;;;;;;;;;;;18.10;99.90;;;;;;4934826;28;19927;-82
2023/09/12 05:07:13;;;;;;;;;;;18.10;99.90;;;;;;4933033;29;19949;-82
2023/09/12 05:09:39;;;;;;;;;;;18.20;99.90;;;;;;4934707;29;19927;-82
2023/09/12 05:12:05;;;;;;;;;;;18.20;99.90;;;;;;4927632;29;20289;-82
2023/09/12 05:14:30;;;;;;;;;;;18.20;99.90;;;;;;4934751;29;19930;-83
2023/09/12 05:16:56;;;;;;;;;;;18.10;99.90;;;;;;4914389;29;19927;-82
2023/09/12 05:19:22;;;;;;;;;;;18.10;99.90;;;;;;4929195;29;19958;-82
2023/09/12 05:21:48;;;;;;;;;;;18.10;99.90;;;;;;4934383;29;19927;-82
2023/09/12 05:24:14;;;;;;;;;;;18.10;99.90;;;;;;4934734;28;20029;-82
2023/09/12 05:26:39;;;;;;;;;;;18.00;99.90;;;;;;4930719;29;20366;-82
2023/09/12 05:29:05;;;;;;;;;;;18.10;99.90;;;;;;4929949;29;19977;-82
2023/09/12 05:31:31;;;;;;;;;;;18.00;99.90;;;;;;4936307;29;19927;-82
2023/09/12 05:33:57;;;;;;;;;;;18.10;99.90;;;;;;4934899;29;19927;-82
2023/09/12 05:36:22;;;;;;;;;;;18.00;99.90;;;;;;4934322;29;20298;-82
2023/09/12 05:38:48;;;;;;;;;;;18.10;99.90;;;;;;4933107;29;19927;-82
2023/09/12 05:41:13;;;;;;;;;;;18.10;99.90;;;;;;4927553;29;19934;-83
2023/09/12 05:43:39;;;;;;;;;;;18.10;99.90;;;;;;4950251;28;19938;-83
2023/09/12 05:46:05;;;;;;;;;;;18.10;99.90;;;;;;4933252;28;20017;-83
2023/09/12 05:48:30;;;;;;;;;;;18.20;99.90;;;;;;4934282;29;20439;-83
2023/09/12 05:50:56;;;;;;;;;;;18.20;99.90;;;;;;4935336;29;19977;-83
2023/09/12 05:53:21;;;;;;;;;;;18.20;99.90;;;;;;4937274;29;20350;-83
2023/09/12 05:55:47;;;;;;;;;;;18.20;99.90;;;;;;4930131;28;20021;-83
2023/09/12 05:58:12;;;;;;;;;;;18.20;99.90;;;;;;4943728;29;19931;-82
2023/09/12 06:00:38;;;;;;;;;;;18.20;99.90;;;;;;4933443;29;19982;-83
2023/09/12 06:03:04;;;;;;;;;;;18.20;99.90;;;;;;4920623;29;19970;-83
2023/09/12 06:05:29;;;;;;;;;;;18.20;99.90;;;;;;4932905;28;19981;-83
2023/09/12 06:07:55;;;;;;;;;;;18.30;99.90;;;;;;4933668;29;19938;-83
2023/09/12 06:10:21;;;;;;;;;;;18.30;99.90;;;;;;4932956;29;20376;-83
2023/09/12 06:12:46;;;;;;;;;;;18.30;99.90;;;;;;4929485;29;19934;-83
2023/09/12 06:15:12;;;;;;;;;;;18.30;99.90;;;;;;4924231;29;19927;-83
2023/09/12 06:17:37;;;;;;;;;;;18.30;99.90;;;;;;4932936;29;19981;-85
2023/09/12 06:20:06;;;;;;;;;;;18.30;99.90;;;;;;4912124;29;20278;-85
2023/09/12 06:22:31;;;;;;;;;;;18.40;99.90;;;;;;4923125;29;20011;-84
2023/09/12 06:24:57;;;;;;;;;;;18.40;99.90;;;;;;4931462;29;20069;-84
2023/09/12 06:27:22;;;;;;;;;;;18.50;99.90;;;;;;4936731;29;19977;-83
2023/09/12 06:29:49;;;;;;;;;;;18.60;99.90;;;;;;4931224;29;19934;-84
2023/09/12 06:32:15;;;;;;;;;;;18.60;99.90;;;;;;4932296;29;19976;-84
2023/09/12 06:34:42;;;;;;;;;;;18.70;99.90;;;;;;4928091;29;19931;-84
2023/09/12 06:37:08;;;;;;;;;;;18.70;99.90;;;;;;4933668;28;19931;-84
2023/09/12 06:39:34;;;;;;;;;;;18.80;99.90;;;;;;4931644;29;19930;-84
2023/09/12 06:41:59;;;;;;;;;;;18.80;99.90;;;;;;4932300;29;19950;-83
2023/09/12 06:44:25;;;;;;;;;;;18.90;99.90;;;;;;4929899;29;20429;-84
2023/09/12 06:46:50;;;;;;;;;;;18.90;99.90;;;;;;4931553;28;19935;-84
2023/09/12 06:49:16;;;;;;;;;;;18.90;99.90;;;;;;4940817;29;19932;-84
2023/09/12 06:51:41;;;;;;;;;;;18.90;99.90;;;;;;4946579;29;19933;-82
2023/09/12 06:54:07;;;;;;;;;;;19.00;99.90;;;;;;4936936;28;20345;-80
2023/09/12 06:56:37;;;;;;;;;;;18.90;99.90;;;;;;4927710;29;19937;-82
2023/09/12 06:59:05;;;;;;;;;;;19.00;99.90;;;;;;4927387;28;19931;-81
2023/09/12 07:01:31;;;;;;;;;;;19.00;99.90;;;;;;4918185;28;20387;-81
2023/09/12 07:03:56;;;;;;;;;;;19.00;99.90;;;;;;4917447;29;20019;-81
2023/09/12 07:06:23;;;;;;;;;;;19.00;99.90;;;;;;4922580;28;20289;-81
2023/09/12 07:08:48;;;;;;;;;;;19.00;99.90;;;;;;4916771;29;19988;-81
2023/09/12 07:11:14;;;;;;;;;;;19.10;99.90;;;;;;4922690;28;19931;-84
2023/09/12 07:13:40;;;;;;;;;;;19.10;99.90;;;;;;4915145;29;20314;-84
2023/09/12 07:16:05;;;;;;;;;;;19.10;99.90;;;;;;4918572;29;19931;-81
2023/09/12 07:18:34;;;;;;;;;;;19.10;99.90;;;;;;4935303;28;19993;-81
2023/09/12 07:21:00;;;;;;;;;;;19.20;99.90;;;;;;4933569;28;19980;-83
2023/09/12 07:23:26;;;;;;;;;;;19.20;99.90;;;;;;4933615;29;19935;-81
2023/09/12 07:25:52;;;;;;;;;;;19.20;99.90;;;;;;4935322;28;19926;-85
2023/09/12 07:28:19;;;;;;;;;;;19.20;99.90;;;;;;4932587;29;20385;-82
2023/09/12 07:30:45;;;;;;;;;;;19.30;99.90;;;;;;4937708;29;19927;-82
2023/09/12 07:33:11;;;;;;;;;;;19.30;99.90;;;;;;4940431;29;20408;-82
2023/09/12 07:35:36;;;;;;;;;;;19.30;99.90;;;;;;4933292;29;19927;-82
2023/09/12 07:38:03;;;;;;;;;;;19.40;99.90;;;;;;4927297;28;19930;-82
2023/09/12 07:40:28;;;;;;;;;;;19.30;99.90;;;;;;4932583;29;20560;-85
2023/09/12 07:42:54;;;;;;;;;;;19.30;99.90;;;;;;4932020;29;20017;-81
2023/09/12 07:45:20;;;;;;;;;;;19.30;99.90;;;;;;4934615;28;19926;-81
2023/09/12 07:47:46;;;;;;;;;;;19.20;99.90;;;;;;4934640;29;20282;-81
2023/09/12 07:50:11;;;;;;;;;;;19.20;99.90;;;;;;4932745;29;20347;-82
2023/09/12 07:52:39;;;;;;;;;;;19.20;99.90;;;;;;4933448;29;19931;-83
2023/09/12 07:55:05;;;;;;;;;;;19.20;99.90;;;;;;4934286;29;19931;-84
2023/09/12 07:57:30;;;;;;;;;;;19.10;99.90;;;;;;4933074;29;19927;-82
2023/09/12 07:59:56;;;;;;;;;;;19.10;99.90;;;;;;4933936;29;19931;-82
2023/09/12 08:02:23;;;;;;;;;;;19.10;99.90;;;;;;4933937;28;19985;-81
2023/09/12 08:04:50;;;;;;;;;;;19.20;99.90;;;;;;4933760;29;19926;-82
2023/09/12 08:07:16;;;;;;;;;;;19.30;99.90;;;;;;4937284;29;20010;-83
2023/09/12 08:09:49;;;;;;;;;;;19.40;99.90;;;;;;4932993;29;20019;-82
2023/09/12 08:12:14;;;;;;;;;;;19.50;99.90;;;;;;4934384;29;19931;-81
2023/09/12 08:14:40;;;;;;;;;;;19.50;99.90;;;;;;4932354;29;19927;-83
2023/09/12 08:17:05;;;;;;;;;;;19.50;99.90;;;;;;4934275;29;20025;-83
2023/09/12 08:19:31;;;;;;;;;;;19.50;99.90;;;;;;4932309;29;19934;-82
2023/09/12 08:21:57;;;;;;;;;;;19.60;99.90;;;;;;4934075;28;19976;-83
2023/09/12 08:24:25;;;;;;;;;;;19.50;99.90;;;;;;4929000;29;20309;-90
2023/09/12 08:26:51;;;;;;;;;;;19.50;99.90;;;;;;4932068;28;19926;-84
2023/09/12 08:29:16;;;;;;;;;;;19.60;99.90;;;;;;4933728;29;19931;-87
2023/09/12 08:31:42;;;;;;;;;;;19.50;99.90;;;;;;4929778;29;19984;-82
2023/09/12 08:34:07;;;;;;;;;;;19.60;99.90;;;;;;4932329;28;19954;-82
2023/09/12 08:36:34;;;;;;;;;;;19.50;99.90;;;;;;4941750;29;19927;-83
2023/09/12 08:39:02;;;;;;;;;;;19.60;99.90;;;;;;4920804;29;19934;-82
2023/09/12 08:41:27;;;;;;;;;;;19.50;99.90;;;;;;4933810;29;19931;-84
2023/09/12 08:43:54;;;;;;;;;;;19.60;99.90;;;;;;4928869;28;19935;-83
2023/09/12 08:46:20;;;;;;;;;;;19.60;99.90;;;;;;4932714;28;19927;-82
2023/09/12 08:48:45;;;;;;;;;;;19.80;99.90;;;;;;4939318;29;19940;-82
2023/09/12 08:51:12;;;;;;;;;;;20.00;99.90;;;;;;4933229;28;19966;-82
2023/09/12 08:53:37;;;;;;;;;;;20.20;99.90;;;;;;4924943;29;19927;-83
2023/09/12 08:56:04;;;;;;;;;;;20.50;99.90;;;;;;4958296;28;19936;-84
2023/09/12 08:58:31;;;;;;;;;;;20.60;99.90;;;;;;4928188;29;19930;-84
2023/09/12 09:00:56;;;;;;;;;;;20.70;99.90;;;;;;4931977;29;20017;-82
2023/09/12 09:03:23;;;;;;;;;;;20.80;99.90;;;;;;4928530;29;20077;-82
2023/09/12 09:05:49;;;;;;;;;;;21.00;99.90;;;;;;4939337;28;20001;-82
2023/09/12 09:08:15;;;;;;;;;;;21.50;99.90;;;;;;4931381;29;19935;-82
2023/09/12 09:10:54;;;;;;;;;;;22.20;99.90;;;;;;4932133;29;19978;-82
2023/09/12 09:13:19;;;;;;;;;;;22.70;99.90;;;;;;4932442;29;20053;-83
2023/09/12 09:15:45;;;;;;;;;;;22.80;99.90;;;;;;4928668;28;20043;-82
2023/09/12 09:18:12;;;;;;;;;;;22.90;99.90;;;;;;4931568;29;19927;-83
2023/09/12 09:20:38;;;;;;;;;;;22.90;99.90;;;;;;4931387;29;19954;-82
2023/09/12 09:23:05;;;;;;;;;;;22.90;99.90;;;;;;4931679;29;20009;-83
2023/09/12 09:25:33;;;;;;;;;;;23.00;99.90;;;;;;4932700;29;19962;-83
2023/09/12 09:28:02;;;;;;;;;;;23.50;99.90;;;;;;4946758;28;19927;-82
2023/09/12 09:30:44;;;;;;;;;;;24.10;99.90;;;;;;4932144;28;19926;-83
2023/09/12 09:33:10;;;;;;;;;;;24.40;99.90;;;;;;4932733;29;19957;-84
2023/09/12 09:35:36;;;;;;;;;;;24.40;99.90;;;;;;4933031;29;19930;-83
2023/09/12 09:38:03;;;;;;;;;;;24.50;99.90;;;;;;4931809;29;19931;-83
2023/09/12 09:40:28;;;;;;;;;;;24.70;99.90;;;;;;4929171;29;20397;-83
2023/09/12 09:42:55;;;;;;;;;;;25.00;99.90;;;;;;4930803;28;19927;-83
2023/09/12 09:45:21;;;;;;;;;;;25.20;99.90;;;;;;4932591;28;19954;-83
2023/09/12 09:47:48;;;;;;;;;;;25.40;99.90;;;;;;4931599;29;20015;-83
2023/09/12 09:50:14;;;;;;;;;;;25.80;99.90;;;;;;4932481;29;20784;-83
2023/09/12 09:52:40;;;;;;;;;;;25.90;99.90;;;;;;4931888;29;19930;-83
2023/09/12 09:55:15;;;;;;;;;;;26.00;99.90;;;;;;4928239;29;20428;-84
2023/09/12 09:57:41;;;;;;;;;;;25.90;99.90;;;;;;4931370;29;20057;-85
2023/09/12 10:00:08;;;;;;;;;;;25.80;99.90;;;;;;4930640;29;20006;-86
2023/09/12 10:02:35;;;;;;;;;;;25.40;99.90;;;;;;4931361;29;19949;-85
2023/09/12 10:05:04;;;;;;;;;;;25.00;99.90;;;;;;4932200;29;19935;-83
2023/09/12 10:07:32;;;;;;;;;;;24.60;99.90;;;;;;4934500;28;19937;-83
2023/09/12 10:09:58;;;;;;;;;;;24.60;99.90;;;;;;4932647;29;19931;-83
2023/09/12 10:12:24;;;;;;;;;;;24.70;99.90;;;;;;4930543;29;19931;-84
2023/09/12 10:14:49;;;;;;;;;;;24.90;99.90;;;;;;4931283;29;19973;-84
2023/09/12 10:17:18;;;;;;;;;;;25.10;99.90;;;;;;4933838;28;20398;-84
2023/09/12 10:19:55;;;;;;;;;;;25.20;99.90;;;;;;4940297;29;19930;-84
2023/09/12 10:22:23;;;;;;;;;;;25.10;99.90;;;;;;4930626;29;19934;-84
2023/09/12 10:24:50;;;;;;;;;;;25.00;99.90;;;;;;4928994;29;20022;-83
2023/09/12 10:27:16;;;;;;;;;;;24.80;99.90;;;;;;4927752;29;20417;-85
2023/09/12 10:29:42;;;;;;;;;;;24.70;99.90;;;;;;4927036;28;19931;-84
2023/09/12 10:32:09;;;;;;;;;;;24.60;99.90;;;;;;4931651;29;19933;-84
2023/09/12 10:34:34;;;;;;;;;;;24.60;99.90;;;;;;4926658;29;19930;-84
2023/09/12 10:37:01;;;;;;;;;;;24.80;99.90;;;;;;4932036;28;19945;-83
2023/09/12 10:39:27;;;;;;;;;;;25.00;99.90;;;;;;4913940;28;19927;-84
2023/09/12 10:41:54;;;;;;;;;;;25.10;99.90;;;;;;4931674;29;19933;-84
2023/09/12 10:44:21;;;;;;;;;;;25.20;99.90;;;;;;4933294;29;19935;-83
2023/09/12 10:46:47;;;;;;;;;;;25.10;99.90;;;;;;4933671;28;19949;-84
2023/09/12 10:49:14;;;;;;;;;;;25.10;99.90;;;;;;4932020;29;19976;-84
2023/09/12 10:51:40;;;;;;;;;;;25.10;99.90;;;;;;4914709;29;19932;-84
2023/09/12 10:54:07;;;;;;;;;;;25.00;99.90;;;;;;4930371;29;19931;-85
2023/09/12 10:56:33;;;;;;;;;;;25.20;99.90;;;;;;4938564;29;19933;-83
2023/09/12 10:59:04;;;;;;;;;;;25.40;99.90;;;;;;4934665;29;19931;-83
2023/09/12 11:01:30;;;;;;;;;;;25.60;99.90;;;;;;4934658;29;19927;-83
2023/09/12 11:03:56;;;;;;;;;;;25.80;99.90;;;;;;4938603;28;19935;-84
2023/09/12 11:06:23;;;;;;;;;;;25.80;99.90;;;;;;4945819;28;19931;-84
2023/09/12 11:09:09;;;;;;;;;;;25.60;99.90;;;;;;4933078;29;20443;-83
2023/09/12 11:11:34;;;;;;;;;;;25.40;99.90;;;;;;4912970;29;19973;-85
2023/09/12 11:14:04;;;;;;;;;;;25.10;99.90;;;;;;4917300;29;20348;-85
2023/09/12 11:16:29;;;;;;;;;;;25.00;99.90;;;;;;4932712;28;19930;-84
2023/09/12 11:19:18;;;;;;;;;;;25.00;99.90;;;;;;4932352;29;19938;-83
2023/09/12 11:21:44;;;;;;;;;;;25.10;99.90;;;;;;4932965;29;20017;-81
2023/09/12 11:24:11;;;;;;;;;;;25.40;99.90;;;;;;4934154;29;19927;-81
2023/09/12 11:26:52;;;;;;;;;;;25.70;99.90;;;;;;4933678;29;20378;-84
2023/09/12 11:29:17;;;;;;;;;;;25.90;99.90;;;;;;4933800;28;20249;-81
2023/09/12 11:31:51;;;;;;;;;;;25.90;99.90;;;;;;4930017;28;19927;-83
2023/09/12 11:34:18;;;;;;;;;;;25.90;99.90;;;;;;4933018;29;19930;-82
2023/09/12 11:36:45;;;;;;;;;;;25.80;99.90;;;;;;4933809;29;19981;-81
2023/09/12 11:39:24;;;;;;;;;;;25.80;99.90;;;;;;4932325;29;20445;-81
2023/09/12 11:41:50;;;;;;;;;;;25.80;99.90;;;;;;4933330;29;19938;-81
2023/09/12 11:44:16;;;;;;;;;;;25.80;99.90;;;;;;4933160;29;20298;-81
2023/09/12 11:46:42;;;;;;;;;;;25.80;99.90;;;;;;4933716;29;19927;-81
2023/09/12 11:49:07;;;;;;;;;;;25.80;99.90;;;;;;4933398;29;19927;-80
2023/09/12 11:51:33;;;;;;;;;;;25.90;99.90;;;;;;4947387;28;19927;-81
2023/09/12 11:53:59;;;;;;;;;;;25.90;99.90;;;;;;4931921;29;19928;-81
2023/09/12 11:56:26;;;;;;;;;;;25.90;99.90;;;;;;4931720;29;19931;-81
2023/09/12 11:58:52;;;;;;;;;;;26.00;99.90;;;;;;4933251;29;19927;-81
2023/09/12 12:01:17;;;;;;;;;;;26.10;99.90;;;;;;4930798;29;20286;-81
2023/09/12 12:03:43;;;;;;;;;;;26.20;99.90;;;;;;4933032;29;19927;-82
2023/09/12 12:06:09;;;;;;;;;;;26.20;99.90;;;;;;4934223;29;19930;-82
2023/09/12 12:08:36;;;;;;;;;;;26.10;99.90;;;;;;4923838;29;19927;-82
2023/09/12 12:11:02;;;;;;;;;;;25.90;99.90;;;;;;4936125;28;19931;-82
2023/09/12 12:13:27;;;;;;;;;;;25.90;99.90;;;;;;4932671;29;19949;-81
2023/09/12 12:15:53;;;;;;;;;;;25.90;99.90;;;;;;4935892;28;19965;-82
2023/09/12 12:18:21;;;;;;;;;;;26.10;99.90;;;;;;4934426;28;19938;-91
2023/09/12 12:20:47;;;;;;;;;;;26.30;99.90;;;;;;4912449;28;19931;-84
2023/09/12 12:23:13;;;;;;;;;;;26.40;99.90;;;;;;4934434;28;19923;-84
2023/09/12 12:25:38;;;;;;;;;;;26.30;99.90;;;;;;4934282;29;20127;-83
2023/09/12 12:28:04;;;;;;;;;;;26.10;99.90;;;;;;4933772;29;20297;-84
2023/09/12 12:30:36;;;;;;;;;;;26.00;99.90;;;;;;4930218;29;19976;-83
2023/09/12 12:33:08;;;;;;;;;;;26.00;99.90;;;;;;4933121;28;20386;-84
2023/09/12 12:35:36;;;;;;;;;;;26.10;99.90;;;;;;4932956;29;19926;-83
2023/09/12 12:38:01;;;;;;;;;;;26.10;99.90;;;;;;4932595;29;19950;-84
2023/09/12 12:40:27;;;;;;;;;;;26.20;99.90;;;;;;4929870;29;20382;-84
2023/09/12 12:42:52;;;;;;;;;;;26.30;99.90;;;;;;4931879;29;20006;-83
2023/09/12 12:45:19;;;;;;;;;;;26.50;99.90;;;;;;4915483;29;19934;-90
2023/09/12 12:47:45;;;;;;;;;;;26.70;99.90;;;;;;4930619;28;19962;-83
2023/09/12 12:50:10;;;;;;;;;;;26.90;99.90;;;;;;4933596;29;19978;-84
2023/09/12 12:52:37;;;;;;;;;;;26.90;99.90;;;;;;4936382;29;20370;-84
2023/09/12 12:55:03;;;;;;;;;;;27.00;99.90;;;;;;4938557;28;20378;-84
2023/09/12 12:57:29;;;;;;;;;;;27.00;99.90;;;;;;4932219;29;19927;-84
2023/09/12 12:59:55;;;;;;;;;;;27.10;99.90;;;;;;4931912;29;20377;-84
2023/09/12 13:02:20;;;;;;;;;;;27.10;99.90;;;;;;4932295;28;19934;-84
2023/09/12 13:04:46;;;;;;;;;;;27.30;99.90;;;;;;4934536;29;19978;-83
2023/09/12 13:07:11;;;;;;;;;;;27.40;99.90;;;;;;4932268;28;19926;-82
2023/09/12 13:09:37;;;;;;;;;;;27.50;99.90;;;;;;4932541;29;19926;-82
2023/09/12 13:12:04;;;;;;;;;;;27.40;99.90;;;;;;4972622;28;20380;-83
2023/09/12 13:14:32;;;;;;;;;;;27.20;99.90;;;;;;4936972;28;19927;-83
2023/09/12 13:16:58;;;;;;;;;;;27.30;99.90;;;;;;4928759;29;20354;-82
2023/09/12 13:19:24;;;;;;;;;;;27.20;99.90;;;;;;4930934;28;19938;-81
2023/09/12 13:21:50;;;;;;;;;;;27.00;99.90;;;;;;4932198;29;19927;-82
2023/09/12 13:24:15;;;;;;;;;;;26.70;99.90;;;;;;4932700;29;19930;-82
2023/09/12 13:26:41;;;;;;;;;;;26.50;99.90;;;;;;4934650;29;20013;-82
2023/09/12 13:29:07;;;;;;;;;;;26.30;99.90;;;;;;4943498;28;19927;-82
2023/09/12 13:31:32;;;;;;;;;;;26.00;99.90;;;;;;4931164;29;19938;-82
2023/09/12 13:33:58;;;;;;;;;;;25.90;99.90;;;;;;4933192;29;19966;-84
2023/09/12 13:36:23;;;;;;;;;;;25.80;99.90;;;;;;4933040;29;20390;-82
2023/09/12 13:38:51;;;;;;;;;;;25.90;99.90;;;;;;4932724;29;19931;-82
2023/09/12 13:41:17;;;;;;;;;;;26.00;99.90;;;;;;4931984;29;19933;-82
2023/09/12 13:43:45;;;;;;;;;;;26.00;99.90;;;;;;4931773;29;20378;-83
2023/09/12 13:46:10;;;;;;;;;;;26.00;99.90;;;;;;4933037;29;19966;-83
2023/09/12 13:48:36;;;;;;;;;;;26.10;99.90;;;;;;4932867;29;19974;-82
2023/09/12 13:51:02;;;;;;;;;;;26.30;99.90;;;;;;4931968;29;19927;-82
2023/09/12 13:53:28;;;;;;;;;;;26.30;99.90;;;;;;4930659;29;19931;-82
2023/09/12 13:55:53;;;;;;;;;;;26.30;99.90;;;;;;4932270;28;19937;-83
2023/09/12 13:58:19;;;;;;;;;;;26.20;99.90;;;;;;4932315;29;19934;-83
2023/09/12 14:00:45;;;;;;;;;;;26.10;99.90;;;;;;4931305;29;19978;-83
2023/09/12 14:03:10;;;;;;;;;;;25.90;99.90;;;;;;4930202;28;19934;-85
2023/09/12 14:05:36;;;;;;;;;;;25.80;99.90;;;;;;4932421;29;19957;-83
2023/09/12 14:08:01;;;;;;;;;;;25.80;99.90;;;;;;4947629;28;19934;-83
2023/09/12 14:10:27;;;;;;;;;;;25.70;99.90;;;;;;4930492;29;19935;-82